Weather observations for the past three days for
Edmonton International Airport
| Date | Time (mdt) | Wind (mph) | Vis. (mi.) | Weather | Sky Cond. | Temperature (ºF) | Relative Humidity | Wind Chill (°F) | Heat Index (°F) | Pressure | Precipitation (in) | ||||||
|---|---|---|---|---|---|---|---|---|---|---|---|---|---|---|---|---|---|
| Air | Dwpt | 6 hour | altimeter (in) | sea level (mb) | 1 hr | 3 hr | 6 hr | ||||||||||
| Max. | Min. | ||||||||||||||||
| 02 | 14:00 | SW 8 G 18 | 20.00 | A Few Clouds | FEW084 | 66.2 | 30.2 | 26% | 30 | 1017.5 | |||||||
| 02 | 13:00 | W 8 G 21 | 20.00 | A Few Clouds | FEW079 | 64.4 | 30.2 | 28% | 30.03 | 1018.5 | |||||||
| 02 | 12:00 | W 5 | 20.00 | A Few Clouds | FEW076 FEW250 | 62.6 | 28.4 | 27% | 30.05 | 1019.3 | |||||||
| 02 | 11:00 | Calm | 20.00 | A Few Clouds | FEW072 FEW250 | 60.8 | 28.4 | 29% | 30.07 | 1019.8 | |||||||
| 02 | 10:00 | W 6 | 20.00 | A Few Clouds | FEW081 FEW250 | 57.2 | 30.2 | 36% | 30.08 | 1020.2 | |||||||
| 02 | 09:00 | W 5 | 20.00 | A Few Clouds | FEW081 FEW250 | 51.8 | 33.8 | 50% | 30.1 | 1020.8 | |||||||
| 02 | 08:00 | SW 5 | 20.00 | A Few Clouds | FEW081 FEW250 | 42.8 | 35.6 | 76% | 41 | 30.11 | 1021.2 | ||||||
| 02 | 07:00 | S 5 | 20.00 | A Few Clouds | FEW081 FEW250 | 33.8 | 30.2 | 87% | 30 | 30.11 | 1021.4 | ||||||
| 02 | 06:00 | S 6 | 20.00 | A Few Clouds | FEW081 FEW250 | 28.4 | 26.6 | 93% | 23 | 30.1 | 1021.3 | ||||||
| 02 | 05:00 | SW 3 | 20.00 | A Few Clouds | FEW081 FEW250 | 30.2 | 28.4 | 93% | 30.09 | 1021.1 | |||||||
| 02 | 04:00 | SW 5 | 20.00 | A Few Clouds | FEW081 FEW250 | 30.2 | 28.4 | 93% | 26 | 30.09 | 1021.0 | ||||||
| 02 | 03:00 | SW 6 | 20.00 | A Few Clouds | FEW081 FEW250 | 32 | 28.4 | 87% | 27 | 30.09 | 1020.9 | ||||||
| 02 | 02:00 | SW 5 | 20.00 | A Few Clouds | FEW081 FEW250 | 32 | 30.2 | 93% | 28 | 30.08 | 1020.7 | ||||||
| 02 | 01:00 | W 5 | 20.00 | A Few Clouds | FEW081 FEW250 | 35.6 | 30.2 | 81% | 32 | 30.08 | 1020.4 | ||||||
| 02 | 00:00 | NW 2 | 20.00 | Partly Cloudy | FEW081 SCT250 | 41 | 33.8 | 76% | 30.07 | 1019.7 | |||||||
| 01 | 23:00 | N 3 | 20.00 | A Few Clouds | FEW081 FEW250 | 44.6 | 33.8 | 66% | 30.06 | 1019.3 | |||||||
| 01 | 22:00 | N 6 | 20.00 | A Few Clouds | FEW081 FEW250 | 48.2 | 33.8 | 58% | 46 | 30.05 | 1018.8 | ||||||
| 01 | 21:00 | N 9 | 20.00 | Partly Cloudy | FEW081 FEW110 SCT250 | 55.4 | 33.8 | 44% | 30.02 | 1017.9 | |||||||
| 01 | 20:00 | NW 12 | 20.00 | Mostly Cloudy | SCT082 BKN110 BKN150 BKN250 | 60.8 | 30.2 | 31% | 29.99 | 1016.5 | |||||||
| 01 | 19:00 | NW 12 G 18 | 20.00 | Mostly Cloudy | FEW072 BKN110 BKN150 BKN250 | 62.6 | 30.2 | 30% | 29.98 | 1016.6 | |||||||
| 01 | 18:00 | W 12 G 18 | 20.00 | Mostly Cloudy | FEW070 BKN100 BKN250 | 64.4 | 33.8 | 32% | 29.98 | 1016.4 | |||||||
| 01 | 17:00 | NW 17 G 24 | 20.00 | Mostly Cloudy | FEW070 SCT150 BKN250 | 64.4 | 33.8 | 32% | 29.98 | 1016.3 | |||||||
| 01 | 16:00 | N 14 | 20.00 | Mostly Cloudy | SCT070 SCT140 BKN250 | 64.4 | 33.8 | 32% | 29.97 | 1016.1 | |||||||
| 01 | 14:00 | NW 10 G 17 | 20.00 | Overcast | FEW062 FEW140 OVC240 | 62.6 | 35.6 | 37% | 29.98 | 1016.4 | |||||||
| 01 | 13:00 | NW 18 | 20.00 | Overcast | BKN130 OVC240 | 62.6 | 33.8 | 34% | 29.98 | 1016.4 | |||||||
| 01 | 12:00 | NW 15 | 20.00 | Mostly Cloudy | BKN120 BKN240 | 62.6 | 35.6 | 37% | 29.97 | 1016.1 | |||||||
| 01 | 11:00 | NW 14 | 20.00 | Mostly Cloudy | BKN120 BKN240 | 62.6 | 33.8 | 34% | 29.97 | 1016.0 | |||||||
| 01 | 10:00 | NW 7 | 20.00 | Mostly Cloudy | FEW140 BKN240 | 59 | 33.8 | 39% | 29.97 | 1016.2 | |||||||
| 01 | 09:00 | W 8 | 20.00 | Mostly Cloudy | SCT120 BKN240 | 55.4 | 32 | 41% | 29.96 | 1015.7 | |||||||
| 01 | 08:00 | NW 8 | 20.00 | Mostly Cloudy | FEW100 BKN240 | 53.6 | 30.2 | 41% | 29.96 | 1015.2 | |||||||
| 01 | 07:00 | W 9 | 20.00 | Mostly Cloudy | FEW100 BKN240 | 46.4 | 28.4 | 50% | 42 | 29.95 | 1014.8 | ||||||
| 01 | 05:00 | W 13 | 20.00 | Partly Cloudy | SCT250 | 48.2 | 28.4 | 46% | 43 | 29.91 | 1013.6 | ||||||
| 01 | 04:00 | W 13 | 20.00 | A Few Clouds | FEW250 | 48.2 | 28.4 | 46% | 43 | 29.9 | 1013.1 | ||||||
| 01 | 03:00 | W 12 | 20.00 | A Few Clouds | FEW250 | 50 | 28.4 | 43% | 46 | 29.9 | 1013.0 | ||||||
| 01 | 02:00 | SW 9 | 20.00 | Clear | SKC | 46.4 | 28.4 | 50% | 42 | 29.9 | 1013.4 | ||||||
| 01 | 01:00 | S 12 | 20.00 | A Few Clouds | FEW250 | 48.2 | 28.4 | 46% | 44 | 29.9 | 1013.3 | ||||||
| 01 | 00:00 | S 8 | 20.00 | A Few Clouds | FEW250 | 48.2 | 28.4 | 46% | 45 | 29.91 | 1013.7 | ||||||
| 30 | 23:00 | SE 9 | 20.00 | A Few Clouds | FEW250 | 48.2 | 28.4 | 46% | 45 | 29.9 | 1014.0 | ||||||
| 30 | 22:00 | SE 9 | 20.00 | A Few Clouds | FEW250 | 50 | 30.2 | 47% | 47 | 29.91 | 1014.4 | ||||||
| 30 | 21:00 | S 5 | 20.00 | Partly Cloudy | SCT250 | 59 | 28.4 | 31% | 29.91 | 1014.1 | |||||||
| 30 | 20:00 | SW 7 | 20.00 | Partly Cloudy | SCT250 | 68 | 26.6 | 21% | 29.92 | 1014.4 | |||||||
| 30 | 19:00 | Vrbl 3 | 20.00 | Partly Cloudy | SCT250 | 71.6 | 26.6 | 19% | 29.94 | 1014.9 | |||||||
| 30 | 18:00 | NW 7 | 20.00 | Mostly Cloudy | BKN250 | 71.6 | 26.6 | 19% | 29.96 | 1015.9 | |||||||
| 30 | 17:00 | NW 3 | 20.00 | Mostly Cloudy | BKN250 | 71.6 | 26.6 | 19% | 29.97 | 1016.3 | |||||||
| 30 | 16:00 | W 9 | 20.00 | Mostly Cloudy | BKN250 | 71.6 | 26.6 | 19% | 29.99 | 1017.2 | |||||||
| 30 | 15:00 | W 7 | 20.00 | Mostly Cloudy | BKN250 | 69.8 | 26.6 | 20% | 30.01 | 1017.9 | |||||||
| 30 | 14:00 | NW 3 | 20.00 | Mostly Cloudy | BKN250 | 68 | 26.6 | 21% | 30.03 | 1018.4 | |||||||
| 30 | 13:00 | W 6 | 20.00 | Mostly Cloudy | BKN250 | 68 | 30.2 | 24% | 30.05 | 1019.3 | |||||||
| 30 | 12:00 | W 5 | 20.00 | A Few Clouds | FEW250 | 64.4 | 32 | 30% | 30.07 | 1020.1 | |||||||
| 30 | 11:00 | NW 7 | 20.00 | Partly Cloudy | SCT250 | 59 | 30.2 | 34% | 30.09 | 1020.8 | |||||||
| 30 | 10:00 | W 8 | 20.00 | Partly Cloudy | SCT250 | 55.4 | 30.2 | 38% | 30.11 | 1021.4 | |||||||
| 30 | 09:00 | W 5 | 20.00 | A Few Clouds | FEW250 | 50 | 32 | 50% | 49 | 30.12 | 1021.5 | ||||||
| 30 | 08:00 | S 5 | 20.00 | A Few Clouds | FEW250 | 44.6 | 30.2 | 57% | 43 | 30.12 | 1021.7 | ||||||
| 30 | 07:00 | S 6 | 20.00 | A Few Clouds | FEW250 | 37.4 | 26.6 | 65% | 33 | 30.12 | 1021.9 | ||||||
| 30 | 06:00 | S 7 | 20.00 | A Few Clouds | FEW250 | 32 | 24.8 | 75% | 26 | 30.12 | 1022.1 | ||||||
| 30 | 05:00 | S 8 | 20.00 | A Few Clouds | FEW240 | 35.6 | 24.8 | 65% | 30 | 30.13 | 1022.1 | ||||||
| 30 | 04:00 | S 9 | 20.00 | A Few Clouds | FEW240 | 32 | 24.8 | 75% | 25 | 30.14 | 1022.7 | ||||||
| 30 | 03:00 | S 7 | 20.00 | A Few Clouds | FEW240 | 30.2 | 24.8 | 80% | 24 | 30.16 | 1023.6 | ||||||
| 30 | 02:00 | S 8 | 20.00 | Clear | SKC | 33.8 | 24.8 | 70% | 28 | 30.17 | 1023.6 | ||||||
| 30 | 01:00 | S 6 | 20.00 | A Few Clouds | FEW240 | 32 | 24.8 | 75% | 27 | 30.17 | 1023.9 | ||||||
| 30 | 00:00 | S 5 | 20.00 | A Few Clouds | FEW250 | 35.6 | 24.8 | 65% | 32 | 30.17 | 1023.8 | ||||||
| 29 | 23:00 | SE 6 | 20.00 | A Few Clouds | FEW240 | 37.4 | 24.8 | 60% | 33 | 30.17 | 1024.0 | ||||||
| 29 | 22:00 | SE 9 | 20.00 | A Few Clouds | FEW090 FEW250 | 41 | 24.8 | 53% | 36 | 30.17 | 1023.8 | ||||||
| 29 | 21:00 | E 8 | 20.00 | A Few Clouds | FEW090 FEW250 | 51.8 | 24.8 | 35% | 30.15 | 1023.0 | |||||||
| 29 | 20:00 | NE 8 | 20.00 | A Few Clouds | FEW090 FEW250 | 57.2 | 23 | 27% | 30.14 | 1022.9 | |||||||
| 29 | 19:00 | NE 10 G 18 | 20.00 | Partly Cloudy | FEW090 SCT250 | 60.8 | 23 | 23% | 30.14 | 1023.0 | |||||||
| 29 | 18:00 | NE 8 | 20.00 | Mostly Cloudy | FEW090 BKN250 | 62.6 | 24.8 | 24% | 30.13 | 1022.8 | |||||||
| 29 | 17:00 | N 12 | 20.00 | A Few Clouds | FEW090 FEW250 | 62.6 | 23 | 22% | 30.13 | 1022.9 | |||||||
| 29 | 16:00 | N 15 | 20.00 | A Few Clouds | FEW088 FEW250 | 62.6 | 24.8 | 24% | 30.14 | 1022.8 | |||||||
| 29 | 15:00 | N 3 | 20.00 | Partly Cloudy | SCT080 SCT250 | 59 | 24.8 | 27% | 30.15 | 1023.2 | |||||||
| Date | Time (mdt) | Wind (mph) | Vis. (mi.) | Weather | Sky Cond. | Air | Dwpt | Max. | Min. | Relative Humidity | Wind Chill (°F) | Heat Index (°F) | altimeter (in) | sea level (mb) | 1 hr | 3 hr | 6 hr |
| 6 hour | |||||||||||||||||
| Temperature (ºF) | Pressure | Precipitation (in) | |||||||||||||||